Summerland, Canada
Current Conditions -  °F | °C
As of 10:00 PM on Tuesday 21 Oct 2014 (Local Time) from CYYF Reporting Station
Scattered Clouds Scattered Clouds  
Wind Chill: 14°   Ceiling: Unl
Heat Index: 14°   Visibility: 15mi
Dew Point:   Wind: 20mph
Humidity: 59%   Direction: 200°SSW
Pressure: 29.81"   Gusts: 28mph
Location:  49.6°N, 119.68°W
Report Text: CYYF 220500Z 20017G24KT 15SM FEW060 SCT100 14/06 A2981 RMK SC1AC3 SLP096 DENSITY ALT 1400FT
Loading
Personal Weather Stations






























Interactive Weather Map
Tropical Storm Tracking
New forecast layout! Learn more

10-Day Weather Forecast

Advertisements
Track Severe Weather on mobile